sensor_id;sensor_type;location;lat;lon;timestamp;P1;durP1;ratioP1;P2;durP2;ratioP2
2161;SDS011;1087;50.226;8.682;2023-04-25T00:01:17;9.57;;;8.57;;
2161;SDS011;1087;50.226;8.682;2023-04-25T00:03:43;8.20;;;7.37;;
2161;SDS011;1087;50.226;8.682;2023-04-25T00:06:09;8.53;;;7.37;;
2161;SDS011;1087;50.226;8.682;2023-04-25T00:08:35;9.63;;;8.63;;
2161;SDS011;1087;50.226;8.682;2023-04-25T00:11:00;10.67;;;6.93;;
2161;SDS011;1087;50.226;8.682;2023-04-25T00:13:26;7.47;;;6.77;;
2161;SDS011;1087;50.226;8.682;2023-04-25T00:15:52;7.80;;;7.00;;
2161;SDS011;1087;50.226;8.682;2023-04-25T00:18:25;8.80;;;8.00;;
2161;SDS011;1087;50.226;8.682;2023-04-25T00:20:53;9.73;;;8.73;;
2161;SDS011;1087;50.226;8.682;2023-04-25T00:23:19;11.60;;;8.83;;
2161;SDS011;1087;50.226;8.682;2023-04-25T00:25:45;9.40;;;8.30;;
2161;SDS011;1087;50.226;8.682;2023-04-25T00:28:12;9.87;;;7.77;;
2161;SDS011;1087;50.226;8.682;2023-04-25T00:30:38;9.30;;;8.33;;
2161;SDS011;1087;50.226;8.682;2023-04-25T00:33:04;8.87;;;7.97;;
2161;SDS011;1087;50.226;8.682;2023-04-25T00:35:30;9.80;;;8.60;;
2161;SDS011;1087;50.226;8.682;2023-04-25T00:37:56;9.50;;;8.03;;
2161;SDS011;1087;50.226;8.682;2023-04-25T00:40:21;9.10;;;8.07;;
2161;SDS011;1087;50.226;8.682;2023-04-25T00:42:47;8.93;;;8.00;;
2161;SDS011;1087;50.226;8.682;2023-04-25T00:45:13;8.90;;;7.93;;
2161;SDS011;1087;50.226;8.682;2023-04-25T00:47:40;9.93;;;8.40;;
2161;SDS011;1087;50.226;8.682;2023-04-25T00:50:06;8.90;;;7.70;;
2161;SDS011;1087;50.226;8.682;2023-04-25T00:52:33;9.23;;;7.80;;
2161;SDS011;1087;50.226;8.682;2023-04-25T00:54:59;9.57;;;8.33;;
2161;SDS011;1087;50.226;8.682;2023-04-25T00:57:25;8.70;;;7.67;;
2161;SDS011;1087;50.226;8.682;2023-04-25T00:59:50;9.53;;;8.53;;
2161;SDS011;1087;50.226;8.682;2023-04-25T01:02:17;8.30;;;7.50;;
2161;SDS011;1087;50.226;8.682;2023-04-25T01:04:44;8.13;;;7.27;;
2161;SDS011;1087;50.226;8.682;2023-04-25T01:07:10;9.50;;;7.50;;
2161;SDS011;1087;50.226;8.682;2023-04-25T01:09:35;10.40;;;8.63;;
2161;SDS011;1087;50.226;8.682;2023-04-25T01:12:01;9.63;;;8.70;;
2161;SDS011;1087;50.226;8.682;2023-04-25T01:14:27;9.70;;;8.60;;
2161;SDS011;1087;50.226;8.682;2023-04-25T01:16:54;10.13;;;7.93;;
2161;SDS011;1087;50.226;8.682;2023-04-25T01:19:19;9.13;;;8.23;;
2161;SDS011;1087;50.226;8.682;2023-04-25T01:21:45;10.50;;;8.33;;
2161;SDS011;1087;50.226;8.682;2023-04-25T01:24:11;10.17;;;8.93;;
2161;SDS011;1087;50.226;8.682;2023-04-25T01:26:37;8.73;;;7.90;;
2161;SDS011;1087;50.226;8.682;2023-04-25T01:29:05;9.03;;;8.13;;
2161;SDS011;1087;50.226;8.682;2023-04-25T01:31:32;9.47;;;8.27;;
2161;SDS011;1087;50.226;8.682;2023-04-25T01:33:59;8.10;;;7.30;;
2161;SDS011;1087;50.226;8.682;2023-04-25T01:36:24;10.63;;;8.60;;
2161;SDS011;1087;50.226;8.682;2023-04-25T01:38:52;10.30;;;8.67;;
2161;SDS011;1087;50.226;8.682;2023-04-25T01:41:17;8.40;;;7.60;;
2161;SDS011;1087;50.226;8.682;2023-04-25T01:43:43;9.57;;;8.37;;
2161;SDS011;1087;50.226;8.682;2023-04-25T01:46:29;10.73;;;7.07;;
2161;SDS011;1087;50.226;8.682;2023-04-25T01:48:55;7.80;;;6.73;;
2161;SDS011;1087;50.226;8.682;2023-04-25T01:51:21;8.10;;;7.30;;
2161;SDS011;1087;50.226;8.682;2023-04-25T01:53:46;12.30;;;7.40;;
2161;SDS011;1087;50.226;8.682;2023-04-25T01:56:12;7.97;;;6.37;;
2161;SDS011;1087;50.226;8.682;2023-04-25T01:58:37;8.20;;;7.07;;
2161;SDS011;1087;50.226;8.682;2023-04-25T02:01:03;7.97;;;6.70;;
2161;SDS011;1087;50.226;8.682;2023-04-25T02:03:29;9.37;;;8.43;;
2161;SDS011;1087;50.226;8.682;2023-04-25T02:05:56;8.73;;;7.83;;
2161;SDS011;1087;50.226;8.682;2023-04-25T02:08:21;9.53;;;7.30;;
2161;SDS011;1087;50.226;8.682;2023-04-25T02:10:47;7.97;;;7.27;;
2161;SDS011;1087;50.226;8.682;2023-04-25T02:13:12;8.87;;;6.80;;
2161;SDS011;1087;50.226;8.682;2023-04-25T02:15:38;13.57;;;7.60;;
2161;SDS011;1087;50.226;8.682;2023-04-25T02:18:03;8.70;;;6.77;;
2161;SDS011;1087;50.226;8.682;2023-04-25T02:20:32;7.47;;;6.77;;
2161;SDS011;1087;50.226;8.682;2023-04-25T02:22:57;7.07;;;6.47;;
2161;SDS011;1087;50.226;8.682;2023-04-25T02:25:23;9.07;;;7.40;;
2161;SDS011;1087;50.226;8.682;2023-04-25T02:27:49;9.10;;;7.60;;
2161;SDS011;1087;50.226;8.682;2023-04-25T02:30:15;9.23;;;7.50;;
2161;SDS011;1087;50.226;8.682;2023-04-25T02:32:40;9.20;;;6.50;;
2161;SDS011;1087;50.226;8.682;2023-04-25T02:35:06;7.60;;;6.67;;
2161;SDS011;1087;50.226;8.682;2023-04-25T02:37:33;9.07;;;7.37;;
2161;SDS011;1087;50.226;8.682;2023-04-25T02:39:59;8.90;;;7.20;;
2161;SDS011;1087;50.226;8.682;2023-04-25T02:42:25;7.93;;;7.23;;
2161;SDS011;1087;50.226;8.682;2023-04-25T02:44:51;8.80;;;7.17;;
2161;SDS011;1087;50.226;8.682;2023-04-25T02:47:17;10.17;;;8.40;;
2161;SDS011;1087;50.226;8.682;2023-04-25T02:49:42;10.60;;;8.20;;
2161;SDS011;1087;50.226;8.682;2023-04-25T02:52:08;9.87;;;7.70;;
2161;SDS011;1087;50.226;8.682;2023-04-25T02:54:33;8.57;;;7.67;;
2161;SDS011;1087;50.226;8.682;2023-04-25T02:56:59;8.37;;;7.37;;
2161;SDS011;1087;50.226;8.682;2023-04-25T02:59:25;8.50;;;7.53;;
2161;SDS011;1087;50.226;8.682;2023-04-25T03:01:51;11.00;;;6.20;;
2161;SDS011;1087;50.226;8.682;2023-04-25T03:04:16;7.37;;;5.93;;
2161;SDS011;1087;50.226;8.682;2023-04-25T03:06:44;7.03;;;5.57;;
2161;SDS011;1087;50.226;8.682;2023-04-25T03:09:09;6.80;;;5.30;;
2161;SDS011;1087;50.226;8.682;2023-04-25T03:11:36;8.37;;;5.97;;
2161;SDS011;1087;50.226;8.682;2023-04-25T03:14:03;7.73;;;6.00;;
2161;SDS011;1087;50.226;8.682;2023-04-25T03:16:29;10.80;;;6.37;;
2161;SDS011;1087;50.226;8.682;2023-04-25T03:18:54;10.27;;;7.10;;
2161;SDS011;1087;50.226;8.682;2023-04-25T03:21:20;10.90;;;6.53;;
2161;SDS011;1087;50.226;8.682;2023-04-25T03:23:45;9.77;;;5.83;;
2161;SDS011;1087;50.226;8.682;2023-04-25T03:26:11;7.70;;;5.70;;
2161;SDS011;1087;50.226;8.682;2023-04-25T03:28:36;11.50;;;7.20;;
2161;SDS011;1087;50.226;8.682;2023-04-25T03:31:02;7.50;;;6.00;;
2161;SDS011;1087;50.226;8.682;2023-04-25T03:33:27;9.23;;;7.30;;
2161;SDS011;1087;50.226;8.682;2023-04-25T03:35:53;9.17;;;6.73;;
2161;SDS011;1087;50.226;8.682;2023-04-25T03:38:18;8.13;;;6.37;;
2161;SDS011;1087;50.226;8.682;2023-04-25T03:40:44;9.47;;;7.10;;
2161;SDS011;1087;50.226;8.682;2023-04-25T03:43:09;8.80;;;6.10;;
2161;SDS011;1087;50.226;8.682;2023-04-25T03:45:36;9.97;;;7.17;;
2161;SDS011;1087;50.226;8.682;2023-04-25T03:48:01;12.80;;;7.80;;
2161;SDS011;1087;50.226;8.682;2023-04-25T03:50:27;11.90;;;7.60;;
2161;SDS011;1087;50.226;8.682;2023-04-25T03:52:52;7.13;;;6.20;;
2161;SDS011;1087;50.226;8.682;2023-04-25T03:55:18;12.63;;;8.30;;
2161;SDS011;1087;50.226;8.682;2023-04-25T03:57:43;10.53;;;7.80;;
2161;SDS011;1087;50.226;8.682;2023-04-25T04:00:09;11.80;;;7.87;;
2161;SDS011;1087;50.226;8.682;2023-04-25T04:02:35;13.50;;;7.53;;
2161;SDS011;1087;50.226;8.682;2023-04-25T04:05:03;10.40;;;8.30;;
2161;SDS011;1087;50.226;8.682;2023-04-25T04:07:29;13.40;;;8.70;;
2161;SDS011;1087;50.226;8.682;2023-04-25T04:09:54;9.60;;;7.33;;
2161;SDS011;1087;50.226;8.682;2023-04-25T04:12:20;11.77;;;7.73;;
2161;SDS011;1087;50.226;8.682;2023-04-25T04:14:45;13.03;;;7.10;;
2161;SDS011;1087;50.226;8.682;2023-04-25T04:17:11;11.43;;;8.20;;
2161;SDS011;1087;50.226;8.682;2023-04-25T04:19:36;14.50;;;7.93;;
2161;SDS011;1087;50.226;8.682;2023-04-25T04:22:02;13.80;;;6.87;;
2161;SDS011;1087;50.226;8.682;2023-04-25T04:24:27;10.90;;;7.40;;
2161;SDS011;1087;50.226;8.682;2023-04-25T04:26:53;8.97;;;7.33;;
2161;SDS011;1087;50.226;8.682;2023-04-25T04:29:18;10.93;;;7.07;;
2161;SDS011;1087;50.226;8.682;2023-04-25T04:31:49;12.00;;;6.70;;
2161;SDS011;1087;50.226;8.682;2023-04-25T04:34:16;10.23;;;8.07;;
2161;SDS011;1087;50.226;8.682;2023-04-25T04:36:43;11.60;;;6.67;;
2161;SDS011;1087;50.226;8.682;2023-04-25T04:39:11;9.97;;;6.77;;
2161;SDS011;1087;50.226;8.682;2023-04-25T04:41:37;10.57;;;6.97;;
2161;SDS011;1087;50.226;8.682;2023-04-25T04:44:02;11.83;;;7.03;;
2161;SDS011;1087;50.226;8.682;2023-04-25T04:46:28;9.47;;;6.33;;
2161;SDS011;1087;50.226;8.682;2023-04-25T04:48:53;14.10;;;8.03;;
2161;SDS011;1087;50.226;8.682;2023-04-25T04:51:21;12.93;;;6.90;;
2161;SDS011;1087;50.226;8.682;2023-04-25T04:53:46;12.10;;;7.03;;
2161;SDS011;1087;50.226;8.682;2023-04-25T04:56:12;13.33;;;7.37;;
2161;SDS011;1087;50.226;8.682;2023-04-25T04:58:37;10.23;;;6.87;;
2161;SDS011;1087;50.226;8.682;2023-04-25T05:01:03;8.77;;;6.87;;
2161;SDS011;1087;50.226;8.682;2023-04-25T05:03:28;10.43;;;7.30;;
2161;SDS011;1087;50.226;8.682;2023-04-25T05:05:54;9.47;;;6.90;;
2161;SDS011;1087;50.226;8.682;2023-04-25T05:08:20;13.57;;;6.30;;
2161;SDS011;1087;50.226;8.682;2023-04-25T05:10:45;9.10;;;7.30;;
2161;SDS011;1087;50.226;8.682;2023-04-25T05:13:11;14.73;;;7.07;;
2161;SDS011;1087;50.226;8.682;2023-04-25T05:15:36;8.27;;;6.90;;
2161;SDS011;1087;50.226;8.682;2023-04-25T05:18:02;8.13;;;6.27;;
2161;SDS011;1087;50.226;8.682;2023-04-25T05:20:27;9.67;;;6.73;;
2161;SDS011;1087;50.226;8.682;2023-04-25T05:22:53;10.57;;;7.00;;
2161;SDS011;1087;50.226;8.682;2023-04-25T05:25:19;9.63;;;7.43;;
2161;SDS011;1087;50.226;8.682;2023-04-25T05:27:44;10.87;;;6.73;;
2161;SDS011;1087;50.226;8.682;2023-04-25T05:30:10;7.40;;;6.03;;
2161;SDS011;1087;50.226;8.682;2023-04-25T05:32:36;6.10;;;5.17;;
2161;SDS011;1087;50.226;8.682;2023-04-25T05:35:01;9.93;;;6.30;;
2161;SDS011;1087;50.226;8.682;2023-04-25T05:37:27;8.60;;;6.43;;
2161;SDS011;1087;50.226;8.682;2023-04-25T05:39:55;7.87;;;5.90;;
2161;SDS011;1087;50.226;8.682;2023-04-25T05:42:20;6.43;;;5.30;;
2161;SDS011;1087;50.226;8.682;2023-04-25T05:44:46;7.50;;;5.90;;
2161;SDS011;1087;50.226;8.682;2023-04-25T05:47:11;8.57;;;6.30;;
2161;SDS011;1087;50.226;8.682;2023-04-25T05:49:37;8.50;;;5.87;;
2161;SDS011;1087;50.226;8.682;2023-04-25T05:52:02;7.80;;;4.60;;
2161;SDS011;1087;50.226;8.682;2023-04-25T05:54:28;7.23;;;5.37;;
2161;SDS011;1087;50.226;8.682;2023-04-25T05:56:53;8.63;;;5.03;;
2161;SDS011;1087;50.226;8.682;2023-04-25T05:59:21;6.13;;;3.70;;
2161;SDS011;1087;50.226;8.682;2023-04-25T06:01:46;5.90;;;4.27;;
2161;SDS011;1087;50.226;8.682;2023-04-25T06:04:12;9.50;;;4.90;;
2161;SDS011;1087;50.226;8.682;2023-04-25T06:06:37;4.80;;;4.40;;
2161;SDS011;1087;50.226;8.682;2023-04-25T06:09:03;8.50;;;5.50;;
2161;SDS011;1087;50.226;8.682;2023-04-25T06:11:28;8.50;;;5.40;;
2161;SDS011;1087;50.226;8.682;2023-04-25T06:13:54;9.23;;;5.43;;
2161;SDS011;1087;50.226;8.682;2023-04-25T06:16:20;6.50;;;5.00;;
2161;SDS011;1087;50.226;8.682;2023-04-25T06:18:45;7.20;;;4.47;;
2161;SDS011;1087;50.226;8.682;2023-04-25T06:21:11;8.37;;;5.50;;
2161;SDS011;1087;50.226;8.682;2023-04-25T06:23:36;5.37;;;3.70;;
2161;SDS011;1087;50.226;8.682;2023-04-25T06:26:02;4.53;;;3.73;;
2161;SDS011;1087;50.226;8.682;2023-04-25T06:28:28;5.70;;;3.73;;
2161;SDS011;1087;50.226;8.682;2023-04-25T06:30:53;6.93;;;3.87;;
2161;SDS011;1087;50.226;8.682;2023-04-25T06:33:19;5.33;;;4.60;;
2161;SDS011;1087;50.226;8.682;2023-04-25T06:35:46;5.70;;;3.90;;
2161;SDS011;1087;50.226;8.682;2023-04-25T06:38:11;5.50;;;4.20;;
2161;SDS011;1087;50.226;8.682;2023-04-25T06:40:37;5.37;;;4.40;;
2161;SDS011;1087;50.226;8.682;2023-04-25T06:43:03;4.13;;;3.73;;
2161;SDS011;1087;50.226;8.682;2023-04-25T06:45:28;5.50;;;3.90;;
2161;SDS011;1087;50.226;8.682;2023-04-25T06:47:54;11.47;;;4.00;;
2161;SDS011;1087;50.226;8.682;2023-04-25T06:50:19;7.10;;;4.60;;
2161;SDS011;1087;50.226;8.682;2023-04-25T06:52:45;5.03;;;3.53;;
2161;SDS011;1087;50.226;8.682;2023-04-25T06:55:11;5.90;;;3.97;;
2161;SDS011;1087;50.226;8.682;2023-04-25T06:57:36;7.37;;;3.87;;
2161;SDS011;1087;50.226;8.682;2023-04-25T07:00:02;6.43;;;4.30;;
2161;SDS011;1087;50.226;8.682;2023-04-25T07:02:30;5.87;;;4.80;;
2161;SDS011;1087;50.226;8.682;2023-04-25T07:04:56;5.93;;;4.27;;
2161;SDS011;1087;50.226;8.682;2023-04-25T07:07:24;6.00;;;4.40;;
2161;SDS011;1087;50.226;8.682;2023-04-25T07:09:50;8.53;;;4.93;;
2161;SDS011;1087;50.226;8.682;2023-04-25T07:12:16;4.80;;;3.73;;
2161;SDS011;1087;50.226;8.682;2023-04-25T07:14:41;5.87;;;4.90;;
2161;SDS011;1087;50.226;8.682;2023-04-25T07:17:07;7.10;;;4.90;;
2161;SDS011;1087;50.226;8.682;2023-04-25T07:19:32;5.60;;;4.20;;
2161;SDS011;1087;50.226;8.682;2023-04-25T07:21:58;5.70;;;5.10;;
2161;SDS011;1087;50.226;8.682;2023-04-25T07:24:23;6.83;;;5.07;;
2161;SDS011;1087;50.226;8.682;2023-04-25T07:26:49;10.10;;;4.53;;
2161;SDS011;1087;50.226;8.682;2023-04-25T07:29:14;6.17;;;4.77;;
2161;SDS011;1087;50.226;8.682;2023-04-25T07:31:40;6.47;;;4.57;;
2161;SDS011;1087;50.226;8.682;2023-04-25T07:34:06;9.73;;;5.40;;
2161;SDS011;1087;50.226;8.682;2023-04-25T07:36:32;5.20;;;4.70;;
2161;SDS011;1087;50.226;8.682;2023-04-25T07:38:57;6.80;;;4.50;;
2161;SDS011;1087;50.226;8.682;2023-04-25T07:41:23;4.93;;;4.13;;
2161;SDS011;1087;50.226;8.682;2023-04-25T07:43:49;6.57;;;4.50;;
2161;SDS011;1087;50.226;8.682;2023-04-25T07:46:14;4.73;;;4.23;;
2161;SDS011;1087;50.226;8.682;2023-04-25T07:48:40;6.73;;;5.10;;
2161;SDS011;1087;50.226;8.682;2023-04-25T07:51:05;5.63;;;4.57;;
2161;SDS011;1087;50.226;8.682;2023-04-25T07:53:32;4.90;;;3.90;;
2161;SDS011;1087;50.226;8.682;2023-04-25T07:55:59;5.20;;;4.10;;
2161;SDS011;1087;50.226;8.682;2023-04-25T07:58:25;4.30;;;3.90;;
2161;SDS011;1087;50.226;8.682;2023-04-25T08:00:51;4.50;;;4.10;;
2161;SDS011;1087;50.226;8.682;2023-04-25T08:03:16;5.00;;;4.50;;
2161;SDS011;1087;50.226;8.682;2023-04-25T08:05:42;6.93;;;4.67;;
2161;SDS011;1087;50.226;8.682;2023-04-25T08:08:07;6.03;;;4.83;;
2161;SDS011;1087;50.226;8.682;2023-04-25T08:10:33;5.07;;;4.60;;
2161;SDS011;1087;50.226;8.682;2023-04-25T08:12:59;5.10;;;4.53;;
2161;SDS011;1087;50.226;8.682;2023-04-25T08:15:24;6.20;;;5.00;;
2161;SDS011;1087;50.226;8.682;2023-04-25T08:17:51;5.23;;;4.40;;
2161;SDS011;1087;50.226;8.682;2023-04-25T08:20:16;6.57;;;4.60;;
2161;SDS011;1087;50.226;8.682;2023-04-25T08:22:42;5.17;;;4.20;;
2161;SDS011;1087;50.226;8.682;2023-04-25T08:25:08;5.53;;;4.90;;
2161;SDS011;1087;50.226;8.682;2023-04-25T08:27:33;6.07;;;5.47;;
2161;SDS011;1087;50.226;8.682;2023-04-25T08:29:59;6.03;;;4.37;;
2161;SDS011;1087;50.226;8.682;2023-04-25T08:32:25;6.50;;;4.93;;
2161;SDS011;1087;50.226;8.682;2023-04-25T08:34:51;5.10;;;4.55;;
2161;SDS011;1087;50.226;8.682;2023-04-25T08:37:19;5.27;;;4.70;;
2161;SDS011;1087;50.226;8.682;2023-04-25T08:39:45;6.10;;;5.07;;
2161;SDS011;1087;50.226;8.682;2023-04-25T08:42:11;7.00;;;5.33;;
2161;SDS011;1087;50.226;8.682;2023-04-25T08:44:37;7.40;;;5.60;;
2161;SDS011;1087;50.226;8.682;2023-04-25T08:47:03;7.30;;;5.00;;
2161;SDS011;1087;50.226;8.682;2023-04-25T08:49:33;8.43;;;5.40;;
2161;SDS011;1087;50.226;8.682;2023-04-25T08:52:00;5.87;;;5.03;;
2161;SDS011;1087;50.226;8.682;2023-04-25T08:54:31;8.00;;;5.60;;
2161;SDS011;1087;50.226;8.682;2023-04-25T08:56:57;5.47;;;4.63;;
2161;SDS011;1087;50.226;8.682;2023-04-25T08:59:30;8.37;;;5.63;;
2161;SDS011;1087;50.226;8.682;2023-04-25T09:01:56;5.20;;;4.70;;
2161;SDS011;1087;50.226;8.682;2023-04-25T09:04:22;7.50;;;5.30;;
2161;SDS011;1087;50.226;8.682;2023-04-25T09:06:47;8.83;;;5.60;;
2161;SDS011;1087;50.226;8.682;2023-04-25T09:09:13;5.73;;;4.97;;
2161;SDS011;1087;50.226;8.682;2023-04-25T09:11:38;5.77;;;5.20;;
2161;SDS011;1087;50.226;8.682;2023-04-25T09:14:18;6.33;;;5.63;;
2161;SDS011;1087;50.226;8.682;2023-04-25T09:19:25;6.63;;;5.33;;
2161;SDS011;1087;50.226;8.682;2023-04-25T09:21:56;6.53;;;5.17;;
2161;SDS011;1087;50.226;8.682;2023-04-25T09:24:57;7.30;;;6.60;;
2161;SDS011;1087;50.226;8.682;2023-04-25T09:27:19;5.43;;;4.93;;
2161;SDS011;1087;50.226;8.682;2023-04-25T09:29:50;8.07;;;6.07;;
2161;SDS011;1087;50.226;8.682;2023-04-25T09:32:23;5.97;;;4.93;;
2161;SDS011;1087;50.226;8.682;2023-04-25T09:34:50;8.40;;;6.23;;
2161;SDS011;1087;50.226;8.682;2023-04-25T09:37:17;6.50;;;4.83;;
2161;SDS011;1087;50.226;8.682;2023-04-25T09:39:49;5.17;;;4.30;;
2161;SDS011;1087;50.226;8.682;2023-04-25T09:42:17;6.57;;;5.53;;
2161;SDS011;1087;50.226;8.682;2023-04-25T09:44:46;6.33;;;5.13;;
2161;SDS011;1087;50.226;8.682;2023-04-25T09:47:13;6.70;;;4.97;;
2161;SDS011;1087;50.226;8.682;2023-04-25T09:49:41;6.67;;;5.33;;
2161;SDS011;1087;50.226;8.682;2023-04-25T09:52:07;4.40;;;4.00;;
2161;SDS011;1087;50.226;8.682;2023-04-25T09:54:33;6.50;;;4.47;;
2161;SDS011;1087;50.226;8.682;2023-04-25T09:57:01;5.83;;;4.67;;
2161;SDS011;1087;50.226;8.682;2023-04-25T09:59:35;5.07;;;4.20;;
2161;SDS011;1087;50.226;8.682;2023-04-25T10:02:06;4.97;;;4.20;;
2161;SDS011;1087;50.226;8.682;2023-04-25T10:04:33;6.10;;;5.57;;
2161;SDS011;1087;50.226;8.682;2023-04-25T10:07:00;6.13;;;5.13;;
2161;SDS011;1087;50.226;8.682;2023-04-25T10:09:28;6.70;;;5.13;;
2161;SDS011;1087;50.226;8.682;2023-04-25T10:11:58;7.27;;;4.83;;
2161;SDS011;1087;50.226;8.682;2023-04-25T10:14:24;6.77;;;5.07;;
2161;SDS011;1087;50.226;8.682;2023-04-25T10:16:51;5.70;;;4.50;;
2161;SDS011;1087;50.226;8.682;2023-04-25T10:19:19;5.17;;;4.70;;
2161;SDS011;1087;50.226;8.682;2023-04-25T10:21:50;5.53;;;4.80;;
2161;SDS011;1087;50.226;8.682;2023-04-25T10:24:25;5.17;;;4.63;;
2161;SDS011;1087;50.226;8.682;2023-04-25T10:26:52;4.63;;;3.90;;
2161;SDS011;1087;50.226;8.682;2023-04-25T10:29:24;4.23;;;3.83;;
2161;SDS011;1087;50.226;8.682;2023-04-25T10:31:51;4.70;;;3.70;;
2161;SDS011;1087;50.226;8.682;2023-04-25T10:34:17;4.60;;;4.20;;
2161;SDS011;1087;50.226;8.682;2023-04-25T10:36:43;6.33;;;3.80;;
2161;SDS011;1087;50.226;8.682;2023-04-25T10:39:20;5.93;;;4.03;;
2161;SDS011;1087;50.226;8.682;2023-04-25T10:41:56;5.27;;;4.37;;
2161;SDS011;1087;50.226;8.682;2023-04-25T10:44:23;4.20;;;3.80;;
2161;SDS011;1087;50.226;8.682;2023-04-25T10:46:51;3.90;;;3.60;;
2161;SDS011;1087;50.226;8.682;2023-04-25T10:49:33;6.30;;;4.20;;
2161;SDS011;1087;50.226;8.682;2023-04-25T10:52:18;5.77;;;4.10;;
2161;SDS011;1087;50.226;8.682;2023-04-25T10:54:51;5.23;;;4.73;;
2161;SDS011;1087;50.226;8.682;2023-04-25T11:00:13;6.43;;;4.20;;
2161;SDS011;1087;50.226;8.682;2023-04-25T11:02:55;9.03;;;4.10;;
2161;SDS011;1087;50.226;8.682;2023-04-25T11:05:28;5.60;;;3.53;;
2161;SDS011;1087;50.226;8.682;2023-04-25T11:07:59;3.93;;;3.63;;
2161;SDS011;1087;50.226;8.682;2023-04-25T11:10:28;5.10;;;3.27;;
2161;SDS011;1087;50.226;8.682;2023-04-25T11:12:55;3.87;;;3.43;;
2161;SDS011;1087;50.226;8.682;2023-04-25T11:15:21;4.70;;;2.80;;
2161;SDS011;1087;50.226;8.682;2023-04-25T11:17:47;7.13;;;3.57;;
2161;SDS011;1087;50.226;8.682;2023-04-25T11:20:12;4.00;;;3.63;;
2161;SDS011;1087;50.226;8.682;2023-04-25T11:22:40;5.73;;;3.40;;
2161;SDS011;1087;50.226;8.682;2023-04-25T11:25:09;3.67;;;3.30;;
2161;SDS011;1087;50.226;8.682;2023-04-25T11:27:51;4.03;;;3.17;;
2161;SDS011;1087;50.226;8.682;2023-04-25T11:30:18;4.43;;;3.50;;
2161;SDS011;1087;50.226;8.682;2023-04-25T11:32:44;4.73;;;3.40;;
2161;SDS011;1087;50.226;8.682;2023-04-25T11:35:10;5.43;;;3.07;;
2161;SDS011;1087;50.226;8.682;2023-04-25T11:37:37;4.83;;;3.03;;
2161;SDS011;1087;50.226;8.682;2023-04-25T11:40:04;4.90;;;3.40;;
2161;SDS011;1087;50.226;8.682;2023-04-25T11:42:36;6.87;;;3.27;;
2161;SDS011;1087;50.226;8.682;2023-04-25T11:45:02;3.67;;;3.33;;
2161;SDS011;1087;50.226;8.682;2023-04-25T11:47:32;6.03;;;3.60;;
2161;SDS011;1087;50.226;8.682;2023-04-25T11:49:59;4.10;;;3.27;;
2161;SDS011;1087;50.226;8.682;2023-04-25T11:55:21;6.57;;;3.20;;
2161;SDS011;1087;50.226;8.682;2023-04-25T11:57:47;3.30;;;3.00;;
2161;SDS011;1087;50.226;8.682;2023-04-25T12:00:16;4.50;;;3.20;;
2161;SDS011;1087;50.226;8.682;2023-04-25T12:02:43;4.20;;;3.53;;
2161;SDS011;1087;50.226;8.682;2023-04-25T12:05:10;3.80;;;3.00;;
2161;SDS011;1087;50.226;8.682;2023-04-25T12:07:37;6.83;;;4.00;;
2161;SDS011;1087;50.226;8.682;2023-04-25T12:10:06;4.20;;;3.80;;
2161;SDS011;1087;50.226;8.682;2023-04-25T12:12:33;7.43;;;3.87;;
2161;SDS011;1087;50.226;8.682;2023-04-25T12:17:39;5.43;;;3.70;;
2161;SDS011;1087;50.226;8.682;2023-04-25T12:20:06;4.07;;;3.67;;
2161;SDS011;1087;50.226;8.682;2023-04-25T12:22:37;5.90;;;3.63;;
2161;SDS011;1087;50.226;8.682;2023-04-25T12:25:03;5.83;;;3.50;;
2161;SDS011;1087;50.226;8.682;2023-04-25T12:27:31;4.30;;;3.90;;
2161;SDS011;1087;50.226;8.682;2023-04-25T12:29:57;5.70;;;3.80;;
2161;SDS011;1087;50.226;8.682;2023-04-25T12:32:23;3.80;;;3.40;;
2161;SDS011;1087;50.226;8.682;2023-04-25T12:34:48;4.90;;;4.40;;
2161;SDS011;1087;50.226;8.682;2023-04-25T12:37:14;9.30;;;4.27;;
2161;SDS011;1087;50.226;8.682;2023-04-25T12:39:40;5.00;;;4.00;;
2161;SDS011;1087;50.226;8.682;2023-04-25T12:42:06;4.30;;;3.90;;
2161;SDS011;1087;50.226;8.682;2023-04-25T12:44:32;6.60;;;4.70;;
2161;SDS011;1087;50.226;8.682;2023-04-25T12:46:58;6.27;;;4.40;;
2161;SDS011;1087;50.226;8.682;2023-04-25T12:49:24;4.50;;;3.80;;
2161;SDS011;1087;50.226;8.682;2023-04-25T12:51:50;5.90;;;4.50;;
2161;SDS011;1087;50.226;8.682;2023-04-25T12:54:16;4.97;;;4.10;;
2161;SDS011;1087;50.226;8.682;2023-04-25T12:56:42;4.80;;;3.53;;
2161;SDS011;1087;50.226;8.682;2023-04-25T12:59:08;6.00;;;4.77;;
2161;SDS011;1087;50.226;8.682;2023-04-25T13:01:34;5.83;;;3.83;;
2161;SDS011;1087;50.226;8.682;2023-04-25T13:04:00;5.07;;;3.50;;
2161;SDS011;1087;50.226;8.682;2023-04-25T13:06:25;5.10;;;3.40;;
2161;SDS011;1087;50.226;8.682;2023-04-25T13:08:52;6.30;;;4.13;;
2161;SDS011;1087;50.226;8.682;2023-04-25T13:11:17;5.00;;;4.50;;
2161;SDS011;1087;50.226;8.682;2023-04-25T13:13:43;6.47;;;4.20;;
2161;SDS011;1087;50.226;8.682;2023-04-25T13:16:09;6.70;;;4.20;;
2161;SDS011;1087;50.226;8.682;2023-04-25T13:18:35;7.40;;;3.90;;
2161;SDS011;1087;50.226;8.682;2023-04-25T13:21:01;4.57;;;4.13;;
2161;SDS011;1087;50.226;8.682;2023-04-25T13:23:27;5.53;;;4.10;;
2161;SDS011;1087;50.226;8.682;2023-04-25T13:25:54;4.50;;;3.73;;
2161;SDS011;1087;50.226;8.682;2023-04-25T13:28:20;5.80;;;4.57;;
2161;SDS011;1087;50.226;8.682;2023-04-25T13:30:46;4.10;;;3.70;;
2161;SDS011;1087;50.226;8.682;2023-04-25T13:33:12;4.03;;;3.60;;
2161;SDS011;1087;50.226;8.682;2023-04-25T13:35:38;4.20;;;3.83;;
2161;SDS011;1087;50.226;8.682;2023-04-25T13:38:04;8.37;;;4.37;;
2161;SDS011;1087;50.226;8.682;2023-04-25T13:40:30;8.40;;;4.20;;
2161;SDS011;1087;50.226;8.682;2023-04-25T13:42:55;4.20;;;3.80;;
2161;SDS011;1087;50.226;8.682;2023-04-25T13:45:21;4.90;;;3.77;;
2161;SDS011;1087;50.226;8.682;2023-04-25T13:47:47;4.40;;;4.00;;
2161;SDS011;1087;50.226;8.682;2023-04-25T13:50:13;10.00;;;4.77;;
2161;SDS011;1087;50.226;8.682;2023-04-25T13:52:39;4.50;;;3.70;;
2161;SDS011;1087;50.226;8.682;2023-04-25T13:55:05;5.70;;;4.13;;
2161;SDS011;1087;50.226;8.682;2023-04-25T13:57:32;6.23;;;4.10;;
2161;SDS011;1087;50.226;8.682;2023-04-25T13:59:58;3.93;;;3.33;;
2161;SDS011;1087;50.226;8.682;2023-04-25T14:02:24;4.07;;;3.57;;
2161;SDS011;1087;50.226;8.682;2023-04-25T14:04:50;4.70;;;2.63;;
2161;SDS011;1087;50.226;8.682;2023-04-25T14:07:15;4.00;;;2.67;;
2161;SDS011;1087;50.226;8.682;2023-04-25T14:09:41;4.20;;;2.60;;
2161;SDS011;1087;50.226;8.682;2023-04-25T14:12:07;3.30;;;3.00;;
2161;SDS011;1087;50.226;8.682;2023-04-25T14:14:32;4.13;;;3.23;;
2161;SDS011;1087;50.226;8.682;2023-04-25T14:16:58;4.43;;;3.03;;
2161;SDS011;1087;50.226;8.682;2023-04-25T14:19:24;3.30;;;3.03;;
2161;SDS011;1087;50.226;8.682;2023-04-25T14:21:49;3.80;;;3.27;;
2161;SDS011;1087;50.226;8.682;2023-04-25T14:24:15;4.70;;;3.37;;
2161;SDS011;1087;50.226;8.682;2023-04-25T14:26:41;4.70;;;3.20;;
2161;SDS011;1087;50.226;8.682;2023-04-25T14:29:07;4.87;;;3.70;;
2161;SDS011;1087;50.226;8.682;2023-04-25T14:31:37;6.60;;;3.00;;
2161;SDS011;1087;50.226;8.682;2023-04-25T14:34:04;4.30;;;3.30;;
2161;SDS011;1087;50.226;8.682;2023-04-25T14:36:30;4.93;;;3.13;;
2161;SDS011;1087;50.226;8.682;2023-04-25T14:38:56;3.47;;;3.17;;
2161;SDS011;1087;50.226;8.682;2023-04-25T14:41:22;6.40;;;3.40;;
2161;SDS011;1087;50.226;8.682;2023-04-25T14:43:49;7.53;;;4.00;;
2161;SDS011;1087;50.226;8.682;2023-04-25T14:46:15;4.43;;;4.03;;
2161;SDS011;1087;50.226;8.682;2023-04-25T14:48:41;4.13;;;3.20;;
2161;SDS011;1087;50.226;8.682;2023-04-25T14:51:07;3.80;;;3.23;;
2161;SDS011;1087;50.226;8.682;2023-04-25T14:53:32;4.23;;;3.00;;
2161;SDS011;1087;50.226;8.682;2023-04-25T14:55:58;4.87;;;3.67;;
2161;SDS011;1087;50.226;8.682;2023-04-25T14:58:23;3.77;;;3.47;;
2161;SDS011;1087;50.226;8.682;2023-04-25T15:00:49;3.90;;;3.40;;
2161;SDS011;1087;50.226;8.682;2023-04-25T15:03:15;3.93;;;2.67;;
2161;SDS011;1087;50.226;8.682;2023-04-25T15:05:41;3.60;;;3.17;;
2161;SDS011;1087;50.226;8.682;2023-04-25T15:08:07;6.13;;;3.17;;
2161;SDS011;1087;50.226;8.682;2023-04-25T15:10:33;2.93;;;2.47;;
2161;SDS011;1087;50.226;8.682;2023-04-25T15:12:58;6.53;;;3.10;;
2161;SDS011;1087;50.226;8.682;2023-04-25T15:15:24;3.43;;;2.60;;
2161;SDS011;1087;50.226;8.682;2023-04-25T15:17:49;4.93;;;3.03;;
2161;SDS011;1087;50.226;8.682;2023-04-25T15:20:16;4.93;;;2.50;;